Time;durP1;ratioP1;P1;durP2;ratioP2;P2;SDS_P1;SDS_P2;PMS_P1;PMS_P2;Temp;Humidity;BMP_temperature;BMP_pressure;BME280_temperature;BME280_humidity;BME280_pressure;Samples;Min_cycle;Max_cycle;Signal;HPM_P1;HPM_P2
2022/04/09 00:01:06;;;;;;;2.20;1.27;;;3.20;99.90;;;;;;5073956;28;20047;-85
2022/04/09 00:03:32;;;;;;;1.35;1.13;;;3.20;99.90;;;;;;5051140;28;20561;-86
2022/04/09 00:05:58;;;;;;;3.85;1.38;;;4.70;99.90;;;;;;5040509;28;20079;-84
2022/04/09 00:08:24;;;;;;;3.55;1.90;;;4.00;99.90;;;;;;5041680;28;20047;-82
2022/04/09 00:10:49;;;;;;;0.60;0.60;;;4.00;99.90;;;;;;5074372;28;20036;-84
2022/04/09 00:13:15;;;;;;;0.68;0.68;;;3.30;99.90;;;;;;5061825;28;20044;-82
2022/04/09 00:15:42;;;;;;;1.33;1.33;;;3.70;99.90;;;;;;5080140;28;20048;-83
2022/04/09 00:18:08;;;;;;;1.10;0.93;;;3.40;99.90;;;;;;5057816;28;20048;-84
2022/04/09 00:20:34;;;;;;;14.25;1.55;;;3.50;99.90;;;;;;5030974;28;20067;-84
2022/04/09 00:23:00;;;;;;;0.80;0.80;;;4.30;99.90;;;;;;5040119;28;20041;-85
2022/04/09 00:25:25;;;;;;;1.45;1.00;;;3.60;99.90;;;;;;5026274;28;20098;-84
2022/04/09 00:27:51;;;;;;;1.33;1.25;;;3.70;99.90;;;;;;5073276;28;20097;-87
2022/04/09 00:30:18;;;;;;;4.45;1.10;;;4.00;99.90;;;;;;5043673;28;20058;-85
2022/04/09 00:32:43;;;;;;;;;;;3.80;99.90;;;;;;5071970;28;20098;-84
2022/04/09 00:35:09;;;;;;;0.60;0.60;;;3.70;99.90;;;;;;5046902;28;19923;-81
2022/04/09 00:37:45;;;;;;;1.02;0.93;;;3.80;99.90;;;;;;5054213;28;20394;-83
2022/04/09 00:40:14;;;;;;;1.17;1.02;;;3.70;99.90;;;;;;5055906;28;20052;-84
2022/04/09 00:42:42;;;;;;;0.50;0.50;;;3.70;99.90;;;;;;5055444;28;20477;-83
2022/04/09 00:45:10;;;;;;;0.60;0.60;;;3.90;99.90;;;;;;5037069;28;20037;-85
2022/04/09 00:47:37;;;;;;;0.65;0.65;;;3.70;99.90;;;;;;5055170;28;20098;-83
2022/04/09 00:50:05;;;;;;;1.05;0.95;;;3.60;99.90;;;;;;5044069;28;20366;-85
2022/04/09 00:52:38;;;;;;;0.85;0.85;;;3.60;99.90;;;;;;5038518;28;20113;-82
2022/04/09 00:55:04;;;;;;;1.13;1.02;;;3.60;99.90;;;;;;5046812;28;20135;-84
2022/04/09 00:57:35;;;;;;;2.95;1.17;;;3.60;99.90;;;;;;5055938;28;20052;-84
2022/04/09 01:00:09;;;;;;;9.45;1.95;;;3.60;99.90;;;;;;5055191;28;20150;-82
2022/04/09 01:02:43;;;;;;;1.00;1.00;;;3.50;99.90;;;;;;5068726;28;20051;-83
2022/04/09 01:05:11;;;;;;;0.70;0.70;;;3.50;99.90;;;;;;5053971;28;20047;-84
2022/04/09 01:07:37;;;;;;;3.65;1.27;;;3.60;99.90;;;;;;5050950;28;20052;-83
2022/04/09 01:10:05;;;;;;;1.40;1.05;;;3.60;99.90;;;;;;5056044;28;20129;-85
2022/04/09 01:12:34;;;;;;;0.82;0.82;;;3.60;99.90;;;;;;5035269;28;20182;-84
2022/04/09 01:15:06;;;;;;;0.73;0.73;;;5.30;99.90;;;;;;5073554;28;20044;-84
2022/04/09 01:17:31;;;;;;;0.85;0.85;;;3.70;99.90;;;;;;5076042;28;21121;-84
2022/04/09 01:20:28;;;;;;;0.73;0.73;;;3.60;99.90;;;;;;5040063;28;20059;-85
2022/04/09 01:22:54;;;;;;;2.00;1.73;;;3.50;99.90;;;;;;5074867;28;20040;-82
2022/04/09 01:25:20;;;;;;;1.13;1.05;;;4.30;99.90;;;;;;5046210;28;20071;-82
2022/04/09 01:27:47;;;;;;;;;;;3.40;99.90;;;;;;5058676;28;20147;-84
2022/04/09 01:30:13;;;;;;;1.13;1.13;;;3.80;99.90;;;;;;5059861;28;19917;-83
2022/04/09 01:32:39;;;;;;;1.40;0.93;;;3.20;99.90;;;;;;5054484;28;20121;-86
2022/04/09 01:35:05;;;;;;;;;;;3.20;99.90;;;;;;5070860;28;20470;-83
2022/04/09 01:37:31;;;;;;;0.60;0.60;;;3.10;99.90;;;;;;5070276;28;19966;-83
2022/04/09 01:39:57;;;;;;;0.70;0.70;;;3.00;99.90;;;;;;5062726;28;20039;-84
2022/04/09 01:42:26;;;;;;;0.70;0.70;;;3.50;99.90;;;;;;5071810;28;20378;-83
2022/04/09 01:44:53;;;;;;;2.15;1.33;;;3.40;99.90;;;;;;5083830;28;20123;-83
2022/04/09 01:47:18;;;;;;;2.30;1.50;;;4.20;99.90;;;;;;5041987;28;20051;-83
2022/04/09 01:49:44;;;;;;;1.08;0.98;;;4.50;99.90;;;;;;5056202;28;20040;-80
2022/04/09 01:52:10;;;;;;;0.70;0.70;;;3.00;99.90;;;;;;5056143;28;20043;-83
2022/04/09 01:54:36;;;;;;;0.88;0.88;;;4.50;99.90;;;;;;5026621;28;20124;-84
2022/04/09 01:57:03;;;;;;;0.80;0.80;;;3.20;99.90;;;;;;5061828;28;20836;-83
2022/04/09 01:59:30;;;;;;;1.33;1.23;;;3.20;99.90;;;;;;5053323;28;20036;-84
2022/04/09 02:01:57;;;;;;;0.95;0.95;;;3.20;99.90;;;;;;5043286;28;20127;-84
2022/04/09 02:04:23;;;;;;;0.98;0.98;;;3.20;99.90;;;;;;5041221;28;20044;-83
2022/04/09 02:06:49;;;;;;;0.60;0.60;;;3.20;99.90;;;;;;5056260;28;20585;-83
2022/04/09 02:09:17;;;;;;;0.95;0.80;;;3.10;99.90;;;;;;5049952;28;20032;-84
2022/04/09 02:11:43;;;;;;;1.25;1.15;;;3.10;99.90;;;;;;5073726;28;20423;-85
2022/04/09 02:14:10;;;;;;;2.47;0.93;;;4.00;99.90;;;;;;5079056;28;20537;-84
2022/04/09 02:16:37;;;;;;;0.63;0.63;;;4.20;99.90;;;;;;5074643;28;20470;-84
2022/04/09 02:19:03;;;;;;;1.30;0.80;;;3.40;99.90;;;;;;5064771;28;20126;-81
2022/04/09 02:21:29;;;;;;;0.77;0.77;;;2.80;99.90;;;;;;5085111;28;20040;-82
2022/04/09 02:23:55;;;;;;;1.80;1.70;;;2.70;99.90;;;;;;5081300;28;20402;-83
2022/04/09 02:26:20;;;;;;;1.17;1.05;;;2.70;99.90;;;;;;5041384;28;20447;-84
2022/04/09 02:28:49;;;;;;;0.63;0.63;;;2.70;99.90;;;;;;5036421;28;20084;-82
2022/04/09 02:31:17;;;;;;;0.73;0.73;;;3.50;99.90;;;;;;5050479;28;20492;-83
2022/04/09 02:33:44;;;;;;;2.42;1.92;;;2.80;99.90;;;;;;5074965;28;20089;-84
2022/04/09 02:36:12;;;;;;;0.60;0.60;;;3.20;99.90;;;;;;5055771;28;20135;-81
2022/04/09 02:38:38;;;;;;;1.92;1.42;;;3.30;99.90;;;;;;5076011;28;20056;-80
2022/04/09 02:41:04;;;;;;;1.35;1.25;;;3.30;99.90;;;;;;5062398;28;20059;-83
2022/04/09 02:43:30;;;;;;;1.75;1.35;;;3.30;99.90;;;;;;5059516;28;20449;-83
2022/04/09 02:45:57;;;;;;;0.55;0.55;;;3.50;99.90;;;;;;5046576;28;20102;-83
2022/04/09 02:48:23;;;;;;;0.93;0.93;;;3.20;99.90;;;;;;5044885;28;20072;-82
2022/04/09 02:50:48;;;;;;;0.60;0.60;;;3.10;99.90;;;;;;5059918;28;20163;-81
2022/04/09 02:53:14;;;;;;;0.70;0.70;;;4.00;99.90;;;;;;5061656;28;20351;-83
2022/04/09 02:55:41;;;;;;;1.08;1.02;;;3.50;99.90;;;;;;5057386;28;20037;-83
2022/04/09 02:58:07;;;;;;;2.55;1.45;;;3.00;99.90;;;;;;5070684;28;20040;-84
2022/04/09 03:00:33;;;;;;;1.25;0.90;;;2.90;99.90;;;;;;5056394;28;20039;-82
2022/04/09 03:02:58;;;;;;;4.05;1.38;;;2.80;99.90;;;;;;5056221;28;20110;-83
2022/04/09 03:05:24;;;;;;;0.50;0.50;;;2.90;99.90;;;;;;5073418;28;20040;-83
2022/04/09 03:07:50;;;;;;;1.30;1.20;;;3.30;99.90;;;;;;5062986;28;20545;-82
2022/04/09 03:10:17;;;;;;;0.93;0.88;;;4.10;99.90;;;;;;5060574;28;20076;-81
2022/04/09 03:12:44;;;;;;;4.32;1.42;;;2.90;99.90;;;;;;5076941;28;20054;-81
2022/04/09 03:15:10;;;;;;;0.75;0.75;;;2.90;99.90;;;;;;5063250;28;20508;-83
2022/04/09 03:17:36;;;;;;;;;;;3.00;99.90;;;;;;5043123;28;20148;-82
2022/04/09 03:20:02;;;;;;;1.88;1.77;;;3.00;99.90;;;;;;5059492;28;19999;-81
2022/04/09 03:22:29;;;;;;;4.90;1.63;;;3.00;99.90;;;;;;5046218;28;20132;-81
2022/04/09 03:24:58;;;;;;;2.17;1.30;;;3.00;99.90;;;;;;5050528;28;20051;-84
2022/04/09 03:27:28;;;;;;;2.05;1.55;;;3.00;99.90;;;;;;5076312;28;20083;-81
2022/04/09 03:29:54;;;;;;;1.52;1.40;;;3.60;99.90;;;;;;5073478;28;20036;-83
2022/04/09 03:32:20;;;;;;;0.70;0.70;;;3.10;99.90;;;;;;5056973;28;20459;-84
2022/04/09 03:34:48;;;;;;;1.02;0.93;;;3.10;99.90;;;;;;5085081;28;20038;-84
2022/04/09 03:37:14;;;;;;;1.02;1.00;;;3.10;99.90;;;;;;5044389;28;20094;-80
2022/04/09 03:39:41;;;;;;;;;;;3.80;99.90;;;;;;5049422;28;20089;-80
2022/04/09 03:42:08;;;;;;;5.03;1.33;;;3.30;99.90;;;;;;5055299;28;19917;-84
2022/04/09 03:44:34;;;;;;;4.32;1.35;;;3.20;99.90;;;;;;5021171;28;20072;-82
2022/04/09 03:47:00;;;;;;;1.45;1.20;;;3.30;99.90;;;;;;5042412;28;20076;-83
2022/04/09 03:49:31;;;;;;;1.67;1.48;;;3.30;99.90;;;;;;5077623;28;20504;-79
2022/04/09 03:51:56;;;;;;;2.75;1.67;;;3.30;99.90;;;;;;5072720;28;20120;-81
2022/04/09 03:54:22;;;;;;;7.32;1.42;;;3.20;99.90;;;;;;5051805;28;20044;-80
2022/04/09 03:56:49;;;;;;;3.05;1.45;;;3.20;99.90;;;;;;5037749;28;20547;-81
2022/04/09 03:59:16;;;;;;;0.73;0.73;;;3.30;99.90;;;;;;5059143;28;20038;-82
2022/04/09 04:01:44;;;;;;;1.75;0.95;;;3.20;99.90;;;;;;5061556;28;20123;-80
2022/04/09 04:04:15;;;;;;;2.70;1.38;;;4.10;99.90;;;;;;5046674;28;20182;-81
2022/04/09 04:06:41;;;;;;;9.75;1.10;;;3.10;99.90;;;;;;5055349;28;20127;-83
2022/04/09 04:09:07;;;;;;;2.58;1.52;;;3.60;99.90;;;;;;5060405;28;20048;-82
2022/04/09 04:11:34;;;;;;;1.73;1.08;;;3.80;99.90;;;;;;5037920;28;20033;-82
2022/04/09 04:13:59;;;;;;;1.20;1.08;;;3.80;99.90;;;;;;5050758;28;20033;-81
2022/04/09 04:16:26;;;;;;;1.48;1.23;;;3.20;99.90;;;;;;5057975;28;20045;-80
2022/04/09 04:18:52;;;;;;;4.05;1.67;;;4.60;99.90;;;;;;5062826;28;20142;-80
2022/04/09 04:21:19;;;;;;;1.33;1.13;;;3.80;99.90;;;;;;5037328;28;20110;-83
2022/04/09 04:23:45;;;;;;;0.80;0.80;;;3.90;99.90;;;;;;5075366;28;20488;-80
2022/04/09 04:26:10;;;;;;;2.63;1.17;;;3.60;99.90;;;;;;5059378;28;20134;-82
2022/04/09 04:28:39;;;;;;;8.02;2.13;;;3.60;99.90;;;;;;5054306;28;20103;-80
2022/04/09 04:31:06;;;;;;;11.43;1.55;;;4.50;99.90;;;;;;5055903;28;20033;-81
2022/04/09 04:33:32;;;;;;;5.28;1.20;;;3.20;99.90;;;;;;5079060;28;20040;-81
2022/04/09 04:35:58;;;;;;;2.15;1.42;;;3.10;99.90;;;;;;5054692;28;20037;-82
2022/04/09 04:38:24;;;;;;;8.27;1.20;;;3.20;99.90;;;;;;5053786;28;20036;-80
2022/04/09 04:40:51;;;;;;;2.50;1.38;;;3.00;99.90;;;;;;5058369;28;20040;-83
2022/04/09 04:43:16;;;;;;;2.65;1.67;;;3.00;99.90;;;;;;5043892;28;20049;-83
2022/04/09 04:45:42;;;;;;;5.05;2.30;;;2.90;99.90;;;;;;5036576;28;20242;-81
2022/04/09 04:48:08;;;;;;;1.23;1.17;;;4.20;99.90;;;;;;5052039;28;20147;-82
2022/04/09 04:50:36;;;;;;;1.25;1.15;;;3.00;99.90;;;;;;5038253;28;20040;-81
2022/04/09 04:53:02;;;;;;;1.48;1.17;;;2.90;99.90;;;;;;5045097;28;20040;-84
2022/04/09 04:55:28;;;;;;;0.60;0.60;;;3.00;99.90;;;;;;5052445;28;20035;-82
2022/04/09 04:57:55;;;;;;;2.05;1.13;;;3.00;99.90;;;;;;5037659;28;20133;-83
2022/04/09 05:00:25;;;;;;;9.13;1.13;;;3.20;99.90;;;;;;5023695;28;20050;-82
2022/04/09 05:02:51;;;;;;;4.03;1.25;;;2.80;99.90;;;;;;5054327;28;20072;-82
2022/04/09 05:05:20;;;;;;;0.70;0.70;;;3.00;99.90;;;;;;5049113;28;20041;-82
2022/04/09 05:07:51;;;;;;;0.98;0.90;;;2.70;99.90;;;;;;5058427;28;20119;-81
2022/04/09 05:10:19;;;;;;;0.55;0.55;;;3.80;99.90;;;;;;5069973;28;20049;-84
2022/04/09 05:12:45;;;;;;;19.73;1.95;;;2.70;99.90;;;;;;5070601;28;20045;-82
2022/04/09 05:15:13;;;;;;;;;;;2.90;99.90;;;;;;5030551;28;20500;-81
2022/04/09 05:17:39;;;;;;;3.83;1.05;;;2.70;99.90;;;;;;5082382;28;19927;-80
2022/04/09 05:20:06;;;;;;;1.23;1.05;;;3.00;99.90;;;;;;5072413;28;20040;-84
2022/04/09 05:22:33;;;;;;;0.68;0.68;;;2.90;99.90;;;;;;5053204;28;20040;-80
2022/04/09 05:25:00;;;;;;;3.40;1.67;;;3.00;99.90;;;;;;5058409;28;20040;-82
2022/04/09 05:27:26;;;;;;;1.13;1.08;;;3.20;99.90;;;;;;5038249;28;20124;-82
2022/04/09 05:29:52;;;;;;;0.75;0.75;;;3.10;99.90;;;;;;5054401;28;20109;-82
2022/04/09 05:32:18;;;;;;;2.63;1.63;;;4.00;99.90;;;;;;5056542;28;20032;-82
2022/04/09 05:34:45;;;;;;;2.55;1.33;;;4.40;99.90;;;;;;5082866;28;20182;-81
2022/04/09 05:37:11;;;;;;;1.92;1.33;;;3.50;99.90;;;;;;5079687;28;20557;-82
2022/04/09 05:39:36;;;;;;;5.70;1.73;;;3.50;99.90;;;;;;5049684;28;20222;-83
2022/04/09 05:42:02;;;;;;;0.70;0.70;;;3.60;99.90;;;;;;5066553;28;20048;-82
2022/04/09 05:44:28;;;;;;;2.80;2.22;;;3.60;99.90;;;;;;5055724;28;20045;-81
2022/04/09 05:46:54;;;;;;;7.05;1.90;;;3.70;99.90;;;;;;5037611;28;20077;-83
2022/04/09 05:49:20;;;;;;;3.75;1.40;;;4.00;99.90;;;;;;5047293;28;20115;-81
2022/04/09 05:51:47;;;;;;;2.03;1.55;;;3.70;99.90;;;;;;5073074;28;20060;-82
2022/04/09 05:54:14;;;;;;;2.35;0.93;;;3.70;99.90;;;;;;5021181;28;20051;-83
2022/04/09 05:56:40;;;;;;;1.05;0.98;;;4.00;99.90;;;;;;5025509;28;20098;-81
2022/04/09 05:59:12;;;;;;;1.25;0.82;;;4.00;99.90;;;;;;5046094;28;20560;-81
2022/04/09 06:01:38;;;;;;;3.90;1.25;;;4.50;99.90;;;;;;5057477;28;20060;-81
2022/04/09 06:04:04;;;;;;;0.70;0.70;;;4.80;99.90;;;;;;5080831;28;20040;-83
2022/04/09 06:06:31;;;;;;;1.75;1.55;;;3.70;99.90;;;;;;5035278;28;20074;-83
2022/04/09 06:08:56;;;;;;;2.90;1.98;;;3.90;99.90;;;;;;5062092;28;20041;-81
2022/04/09 06:11:22;;;;;;;4.93;1.08;;;4.00;99.90;;;;;;5024951;28;20098;-81
2022/04/09 06:13:54;;;;;;;0.60;0.60;;;4.00;99.90;;;;;;5040413;28;20501;-85
2022/04/09 06:16:21;;;;;;;2.92;1.20;;;5.10;99.90;;;;;;5055880;28;20041;-82
2022/04/09 06:18:47;;;;;;;0.77;0.77;;;4.40;99.90;;;;;;5074935;28;20402;-82
2022/04/09 06:21:13;;;;;;;2.00;1.10;;;4.20;99.90;;;;;;5027332;28;20060;-83
2022/04/09 06:23:38;;;;;;;5.03;1.00;;;3.80;99.90;;;;;;5038814;28;20400;-81
2022/04/09 06:26:04;;;;;;;1.10;1.00;;;3.70;99.90;;;;;;5077368;28;20044;-82
2022/04/09 06:28:31;;;;;;;7.95;1.63;;;3.80;99.90;;;;;;5059814;28;20124;-82
2022/04/09 06:30:58;;;;;;;0.73;0.73;;;3.80;99.90;;;;;;5025056;28;20122;-83
2022/04/09 06:33:23;;;;;;;;;;;3.90;99.90;;;;;;5073761;28;20166;-82
2022/04/09 06:35:49;;;;;;;5.43;1.70;;;4.00;99.90;;;;;;5055325;28;19935;-82
2022/04/09 06:38:15;;;;;;;0.82;0.82;;;4.20;99.90;;;;;;5076300;28;20055;-81
2022/04/09 06:40:40;;;;;;;2.55;1.75;;;4.50;99.90;;;;;;5064587;28;20052;-83
2022/04/09 06:43:06;;;;;;;8.52;1.25;;;4.80;99.90;;;;;;5065292;28;20048;-81
2022/04/09 06:45:33;;;;;;;1.55;1.02;;;5.70;99.90;;;;;;5075254;28;20036;-82
2022/04/09 06:47:59;;;;;;;2.83;1.33;;;4.90;99.90;;;;;;5056431;28;20044;-81
2022/04/09 06:50:25;;;;;;;1.52;1.15;;;4.80;99.90;;;;;;5054769;28;20042;-82
2022/04/09 06:52:50;;;;;;;1.10;0.95;;;4.70;99.90;;;;;;5039978;28;20474;-82
2022/04/09 06:55:16;;;;;;;1.70;1.10;;;4.70;99.90;;;;;;5040842;28;20048;-81
2022/04/09 06:57:43;;;;;;;1.70;1.42;;;5.00;99.90;;;;;;5026997;28;20124;-83
2022/04/09 07:00:11;;;;;;;2.05;1.02;;;4.80;99.90;;;;;;5053599;28;20242;-82
2022/04/09 07:02:37;;;;;;;4.25;1.77;;;4.90;99.90;;;;;;5074092;28;20189;-79
2022/04/09 07:05:03;;;;;;;3.25;1.38;;;5.00;99.90;;;;;;5066947;28;20032;-81
2022/04/09 07:07:29;;;;;;;;;;;5.30;99.90;;;;;;5085784;28;20047;-83
2022/04/09 07:10:04;;;;;;;1.27;1.17;;;5.50;99.90;;;;;;5054889;28;19920;-80
2022/04/09 07:12:30;;;;;;;1.58;1.48;;;5.80;99.90;;;;;;5087026;28;20040;-81
2022/04/09 07:14:56;;;;;;;;;;;6.00;99.90;;;;;;5066141;28;20351;-78
2022/04/09 07:17:22;;;;;;;1.77;1.55;;;5.60;99.90;;;;;;5071591;28;20057;-78
2022/04/09 07:19:47;;;;;;;6.20;1.33;;;5.50;99.90;;;;;;5071245;28;20067;-82
2022/04/09 07:22:13;;;;;;;1.75;1.00;;;5.40;99.90;;;;;;5055201;28;20400;-80
2022/04/09 07:24:40;;;;;;;3.55;1.00;;;5.30;99.90;;;;;;5061359;28;20400;-83
2022/04/09 07:27:07;;;;;;;1.35;1.17;;;6.10;99.90;;;;;;5045297;28;20036;-80
2022/04/09 07:29:33;;;;;;;2.58;1.40;;;5.50;99.90;;;;;;5056590;28;20500;-80
2022/04/09 07:32:00;;;;;;;5.03;1.52;;;6.20;99.90;;;;;;5069438;28;20119;-80
2022/04/09 07:34:26;;;;;;;4.13;1.08;;;5.80;99.90;;;;;;5050807;28;20166;-79
2022/04/09 07:36:52;;;;;;;1.30;0.82;;;6.00;99.90;;;;;;5071381;28;20478;-81
2022/04/09 07:39:18;;;;;;;3.28;1.25;;;6.30;99.90;;;;;;5051852;28;20049;-85
2022/04/09 07:41:43;;;;;;;5.10;1.40;;;6.40;99.90;;;;;;5057651;28;20032;-80
2022/04/09 07:44:09;;;;;;;6.72;1.90;;;6.50;99.90;;;;;;5069337;28;20036;-83
2022/04/09 07:46:35;;;;;;;0.93;0.93;;;6.50;99.90;;;;;;5037917;28;20124;-82
2022/04/09 07:49:01;;;;;;;1.30;1.15;;;6.50;99.90;;;;;;5051961;28;20047;-83
2022/04/09 07:51:27;;;;;;;1.13;0.98;;;6.60;99.90;;;;;;5082865;28;20100;-81
2022/04/09 07:53:52;;;;;;;1.48;1.13;;;6.60;99.90;;;;;;5046120;28;20452;-83
2022/04/09 07:56:19;;;;;;;0.63;0.63;;;6.70;99.90;;;;;;5044463;28;20044;-83
2022/04/09 07:58:44;;;;;;;0.80;0.80;;;6.70;99.90;;;;;;5039893;28;20044;-81
2022/04/09 08:01:10;;;;;;;;;;;6.70;99.90;;;;;;5054324;28;20492;-80
2022/04/09 08:03:36;;;;;;;3.10;1.10;;;6.80;99.90;;;;;;5054508;28;19916;-81
2022/04/09 08:06:05;;;;;;;3.55;1.27;;;6.90;99.90;;;;;;5055330;28;20049;-83
2022/04/09 08:08:38;;;;;;;1.98;1.10;;;7.10;99.90;;;;;;5070689;28;20125;-83
2022/04/09 08:11:04;;;;;;;4.30;1.30;;;7.20;99.90;;;;;;5074235;28;20136;-82
2022/04/09 08:13:30;;;;;;;2.17;1.20;;;7.20;99.90;;;;;;5071574;28;20044;-84
2022/04/09 08:15:56;;;;;;;2.90;1.45;;;7.30;99.90;;;;;;5053976;28;20055;-82
2022/04/09 08:18:22;;;;;;;1.85;0.82;;;7.30;99.90;;;;;;5022101;28;20061;-82
2022/04/09 08:20:48;;;;;;;2.67;1.58;;;7.30;99.90;;;;;;5042666;28;20112;-82
2022/04/09 08:23:13;;;;;;;3.63;1.35;;;7.30;99.90;;;;;;5058433;28;20063;-81
2022/04/09 08:25:39;;;;;;;1.20;0.95;;;7.40;99.90;;;;;;5061209;28;20044;-84
2022/04/09 08:28:05;;;;;;;1.33;1.10;;;7.60;99.90;;;;;;5034966;28;20044;-82
2022/04/09 08:30:31;;;;;;;2.90;1.45;;;7.80;99.90;;;;;;5068987;28;20037;-81
2022/04/09 08:32:58;;;;;;;2.45;1.40;;;7.80;99.90;;;;;;5052879;28;20064;-81
2022/04/09 08:35:24;;;;;;;0.52;0.52;;;7.80;99.90;;;;;;5033497;28;20375;-87
2022/04/09 08:37:54;;;;;;;5.43;1.33;;;7.80;99.90;;;;;;5038113;28;20076;-81
2022/04/09 08:40:21;;;;;;;1.20;0.90;;;7.80;99.90;;;;;;5037653;28;20048;-81
2022/04/09 08:42:48;;;;;;;2.17;1.33;;;7.80;99.90;;;;;;5027402;28;20052;-80
2022/04/09 08:45:15;;;;;;;2.55;1.15;;;7.80;99.90;;;;;;5038316;28;20043;-78
2022/04/09 08:47:45;;;;;;;2.83;1.10;;;7.90;99.90;;;;;;5044226;28;20385;-84
2022/04/09 08:50:15;;;;;;;3.78;1.25;;;8.00;99.90;;;;;;5042091;28;20446;-81
2022/04/09 08:52:44;;;;;;;4.80;1.88;;;7.90;99.90;;;;;;5067557;28;20039;-84
2022/04/09 08:55:13;;;;;;;3.90;1.33;;;8.00;99.90;;;;;;5035577;28;20036;-82
2022/04/09 08:57:43;;;;;;;1.13;0.75;;;8.00;99.90;;;;;;5044242;28;20504;-83
2022/04/09 09:00:12;;;;;;;0.40;0.40;;;7.50;99.90;;;;;;5057277;28;20075;-78
2022/04/09 09:02:49;;;;;;;6.90;1.20;;;6.50;99.90;;;;;;5051391;28;20438;-81
2022/04/09 09:05:37;;;;;;;1.70;0.47;;;5.70;99.90;;;;;;5071118;28;20049;-81
2022/04/09 09:08:04;;;;;;;0.70;0.70;;;5.10;99.90;;;;;;5068909;28;20434;-80
2022/04/09 09:10:30;;;;;;;0.73;0.73;;;4.70;99.90;;;;;;5052589;28;20048;-81
2022/04/09 09:13:05;;;;;;;0.60;0.60;;;4.50;99.90;;;;;;5051536;28;20060;-82
2022/04/09 09:15:53;;;;;;;1.17;0.93;;;4.40;99.90;;;;;;5071767;28;20090;-83
2022/04/09 09:18:24;;;;;;;0.85;0.70;;;4.40;99.90;;;;;;5056386;28;20087;-83
2022/04/09 09:20:57;;;;;;;0.50;0.50;;;4.60;99.90;;;;;;5069913;28;20524;-82
2022/04/09 09:23:27;;;;;;;0.63;0.63;;;5.50;99.90;;;;;;5069424;28;20048;-82
2022/04/09 09:25:55;;;;;;;0.88;0.80;;;5.40;99.90;;;;;;5070963;28;20079;-81
2022/04/09 09:28:40;;;;;;;8.65;1.38;;;5.50;99.90;;;;;;5055434;28;20048;-83
2022/04/09 09:31:06;;;;;;;0.68;0.68;;;5.90;99.90;;;;;;5072499;28;20041;-82
2022/04/09 09:33:31;;;;;;;1.48;0.80;;;6.20;99.90;;;;;;5035456;28;20045;-80
2022/04/09 09:36:01;;;;;;;0.50;0.50;;;6.70;99.90;;;;;;5053427;28;20045;-83
2022/04/09 09:38:29;;;;;;;0.90;0.90;;;7.80;99.90;;;;;;5053564;28;20048;-82
2022/04/09 09:40:56;;;;;;;0.80;0.80;;;7.50;99.90;;;;;;5054917;28;20063;-78
2022/04/09 09:43:24;;;;;;;2.10;1.20;;;7.90;99.90;;;;;;5054414;28;20048;-82
2022/04/09 09:45:51;;;;;;;2.22;1.58;;;8.10;99.90;;;;;;5065495;28;20124;-81
2022/04/09 09:48:28;;;;;;;3.72;1.30;;;7.90;99.90;;;;;;5059612;28;20072;-80
2022/04/09 09:50:59;;;;;;;1.40;1.20;;;7.30;99.90;;;;;;5055365;28;20045;-83
2022/04/09 09:53:29;;;;;;;2.58;1.00;;;6.50;99.90;;;;;;5070219;28;20163;-82
2022/04/09 09:55:59;;;;;;;0.70;0.68;;;6.10;99.90;;;;;;5058239;28;20064;-83
2022/04/09 09:58:26;;;;;;;1.13;1.10;;;5.80;99.90;;;;;;5037943;28;20127;-80
2022/04/09 10:00:55;;;;;;;0.50;0.50;;;5.70;99.90;;;;;;5062839;28;20044;-83
2022/04/09 10:03:21;;;;;;;1.05;0.70;;;5.80;99.90;;;;;;5037821;28;20044;-80
2022/04/09 10:05:49;;;;;;;0.50;0.50;;;5.90;99.90;;;;;;5070397;28;20059;-81
2022/04/09 10:08:18;;;;;;;0.63;0.63;;;6.00;99.90;;;;;;5070153;28;20045;-81
2022/04/09 10:10:48;;;;;;;1.52;0.60;;;6.10;99.90;;;;;;5064040;28;20455;-80
2022/04/09 10:13:19;;;;;;;0.50;0.50;;;6.10;99.90;;;;;;5076003;28;20113;-80
2022/04/09 10:15:50;;;;;;;0.60;0.60;;;6.00;99.90;;;;;;5074136;28;20362;-83
2022/04/09 10:18:25;;;;;;;1.55;0.60;;;5.90;99.90;;;;;;5055492;28;20071;-83
2022/04/09 10:20:59;;;;;;;1.23;0.70;;;6.10;99.90;;;;;;5073253;28;20088;-82
2022/04/09 10:23:27;;;;;;;1.48;0.88;;;6.60;99.90;;;;;;5052678;28;20044;-82
2022/04/09 10:25:53;;;;;;;1.35;1.25;;;6.60;99.90;;;;;;5049870;28;20126;-80
2022/04/09 10:28:38;;;;;;;0.57;0.57;;;6.80;99.90;;;;;;5073525;28;20036;-83
2022/04/09 10:31:22;;;;;;;0.70;0.70;;;6.90;99.90;;;;;;5040919;28;20042;-87
2022/04/09 10:33:59;;;;;;;0.65;0.65;;;6.80;99.90;;;;;;5063413;28;20135;-80
2022/04/09 10:36:40;;;;;;;1.13;1.05;;;6.90;99.90;;;;;;5052211;28;20116;-86
2022/04/09 10:39:19;;;;;;;1.05;0.85;;;7.00;99.90;;;;;;5060568;28;20045;-86
2022/04/09 10:41:44;;;;;;;0.95;0.90;;;7.20;99.90;;;;;;5063472;28;20558;-84
2022/04/09 10:44:10;;;;;;;1.02;0.70;;;7.30;99.90;;;;;;5033592;28;20135;-84
2022/04/09 10:46:36;;;;;;;1.65;0.98;;;7.60;99.90;;;;;;5042758;28;20041;-86
2022/04/09 10:49:16;;;;;;;0.85;0.77;;;7.50;99.90;;;;;;5059080;28;20041;-86
2022/04/09 10:52:19;;;;;;;1.00;0.85;;;7.60;99.90;;;;;;5060124;28;20051;-86
2022/04/09 10:55:30;;;;;;;0.85;0.73;;;7.00;99.90;;;;;;5002777;28;20038;-86
2022/04/09 10:58:08;;;;;;;1.50;1.15;;;7.00;99.90;;;;;;4963684;28;20715;-84
2022/04/09 11:00:35;;;;;;;0.60;0.60;;;7.00;99.90;;;;;;5048700;28;20044;-86
2022/04/09 11:03:40;;;;;;;1.35;1.25;;;7.10;99.90;;;;;;5067107;28;20050;-85
2022/04/09 11:06:40;;;;;;;1.70;0.90;;;7.30;99.90;;;;;;5067578;28;20036;-83
2022/04/09 11:09:07;;;;;;;0.80;0.80;;;7.60;99.90;;;;;;5064959;28;20417;-85
2022/04/09 11:11:33;;;;;;;0.95;0.68;;;7.70;99.90;;;;;;5039732;28;20045;-84
2022/04/09 11:14:00;;;;;;;0.85;0.75;;;7.90;99.90;;;;;;5052861;28;20040;-81
2022/04/09 11:16:33;;;;;;;2.00;1.27;;;8.00;99.90;;;;;;5022760;28;20048;-82
2022/04/09 11:19:01;;;;;;;1.88;0.68;;;8.20;99.90;;;;;;5036427;28;20060;-85
2022/04/09 11:21:27;;;;;;;1.48;1.33;;;8.40;99.90;;;;;;5073118;28;20427;-84
2022/04/09 11:24:08;;;;;;;1.15;1.05;;;8.50;99.90;;;;;;5063296;28;20068;-88
2022/04/09 11:26:36;;;;;;;5.45;1.20;;;8.50;99.90;;;;;;5061956;28;20090;-85
2022/04/09 11:29:14;;;;;;;1.58;0.98;;;8.50;99.90;;;;;;5060458;28;20050;-85
2022/04/09 11:31:49;;;;;;;1.15;0.80;;;8.50;99.90;;;;;;5040546;28;20455;-84
2022/04/09 11:34:14;;;;;;;0.65;0.65;;;8.30;99.90;;;;;;5051696;28;20115;-84
2022/04/09 11:36:40;;;;;;;1.13;0.77;;;8.00;99.90;;;;;;5036202;28;20126;-83
2022/04/09 11:39:06;;;;;;;1.85;1.48;;;7.90;99.90;;;;;;5043948;28;20174;-84
2022/04/09 11:41:33;;;;;;;1.52;0.63;;;7.80;99.90;;;;;;5066389;28;20048;-87
2022/04/09 11:44:00;;;;;;;0.60;0.60;;;7.70;99.90;;;;;;5036736;28;20072;-85
2022/04/09 11:46:32;;;;;;;0.60;0.60;;;7.70;99.90;;;;;;5044918;28;20062;-82
2022/04/09 11:49:01;;;;;;;0.93;0.82;;;8.00;99.90;;;;;;5012548;28;20496;-85
2022/04/09 11:51:26;;;;;;;3.13;0.70;;;8.40;99.90;;;;;;5039335;28;20086;-81
2022/04/09 11:53:52;;;;;;;4.25;0.85;;;8.50;99.90;;;;;;5056233;28;20032;-84
2022/04/09 11:56:18;;;;;;;2.08;1.17;;;8.30;99.90;;;;;;5036572;28;20036;-80
2022/04/09 11:58:44;;;;;;;3.92;1.17;;;8.00;99.90;;;;;;5045658;28;20400;-79
2022/04/09 12:01:10;;;;;;;2.13;0.68;;;7.60;99.90;;;;;;5055197;28;20044;-84
2022/04/09 12:03:36;;;;;;;;;;;7.30;99.90;;;;;;5036093;28;20097;-84
2022/04/09 12:06:03;;;;;;;0.77;0.77;;;7.40;99.90;;;;;;5054597;28;20037;-82
2022/04/09 12:08:33;;;;;;;5.65;1.10;;;7.80;99.90;;;;;;5063142;28;20382;-84
2022/04/09 12:11:10;;;;;;;5.32;1.75;;;8.00;99.90;;;;;;5055533;28;20028;-83
2022/04/09 12:13:42;;;;;;;0.77;0.77;;;8.10;99.90;;;;;;5061492;28;20575;-80
2022/04/09 12:16:11;;;;;;;0.80;0.80;;;8.10;99.90;;;;;;5035161;28;20044;-81
2022/04/09 12:18:37;;;;;;;1.25;1.00;;;8.70;99.90;;;;;;5056964;28;20060;-82
2022/04/09 12:21:26;;;;;;;0.65;0.65;;;8.50;99.90;;;;;;5042254;28;20497;-84
2022/04/09 12:24:09;;;;;;;0.90;0.90;;;8.70;99.90;;;;;;5048871;28;20048;-79
2022/04/09 12:26:39;;;;;;;1.73;1.10;;;8.80;99.90;;;;;;5048313;28;20044;-82
2022/04/09 12:29:26;;;;;;;3.42;0.80;;;8.90;99.90;;;;;;5051398;28;20047;-80
2022/04/09 12:32:18;;;;;;;1.75;0.80;;;9.50;99.90;;;;;;5057954;28;20040;-83
2022/04/09 12:34:58;;;;;;;1.85;0.93;;;8.70;99.90;;;;;;5030900;28;20094;-84
2022/04/09 12:37:25;;;;;;;4.03;1.05;;;8.60;99.90;;;;;;5038046;28;20044;-85
2022/04/09 12:39:52;;;;;;;2.53;0.85;;;8.60;99.90;;;;;;5035251;28;20131;-82
2022/04/09 12:42:31;;;;;;;1.75;1.15;;;8.60;99.90;;;;;;5056558;28;20717;-84
2022/04/09 12:45:22;;;;;;;2.47;2.35;;;8.40;99.90;;;;;;5071757;28;20420;-84
2022/04/09 12:47:59;;;;;;;1.70;1.00;;;8.30;99.90;;;;;;5053784;28;20398;-84
2022/04/09 12:50:31;;;;;;;1.08;0.73;;;8.40;99.90;;;;;;5059251;28;20040;-82
2022/04/09 12:52:59;;;;;;;2.47;0.98;;;8.60;99.90;;;;;;5052488;28;20032;-83
2022/04/09 12:55:26;;;;;;;0.50;0.50;;;8.70;99.90;;;;;;5071848;28;20044;-87
2022/04/09 12:57:54;;;;;;;3.97;0.85;;;8.90;99.90;;;;;;5027045;28;20044;-84
2022/04/09 13:00:21;;;;;;;2.05;1.35;;;9.10;99.90;;;;;;5068948;28;20102;-87
2022/04/09 13:02:48;;;;;;;1.85;0.85;;;9.80;99.90;;;;;;5064239;28;20051;-86
2022/04/09 13:05:16;;;;;;;0.73;0.73;;;9.30;99.90;;;;;;5050278;28;20045;-84
2022/04/09 13:07:42;;;;;;;4.32;1.10;;;9.60;99.90;;;;;;5047239;28;20041;-85